createdAt,value
2022-12-11T00:07:36.905Z,100.0
2022-12-11T00:27:36.906Z,100.0
2022-12-11T00:47:36.907Z,99.8
2022-12-11T01:07:36.897Z,99.8
2022-12-11T01:27:36.889Z,100.0
2022-12-11T01:47:36.881Z,100.0
2022-12-11T02:07:36.879Z,100.0
2022-12-11T02:27:36.874Z,99.7
2022-12-11T02:47:36.856Z,99.1
2022-12-11T03:07:36.842Z,99.5
2022-12-11T03:27:36.846Z,99.0
2022-12-11T03:47:36.831Z,99.4
2022-12-11T04:07:36.837Z,99.8
2022-12-11T04:27:36.833Z,99.2
2022-12-11T04:47:36.809Z,99.6
2022-12-11T05:07:36.819Z,98.7
2022-12-11T05:27:36.818Z,99.5
2022-12-11T05:47:36.800Z,100.0
2022-12-11T06:07:36.791Z,100.0
2022-12-11T06:27:36.900Z,99.8
2022-12-11T06:47:36.799Z,99.8
2022-12-11T07:07:36.788Z,100.0
2022-12-11T07:27:36.768Z,100.0
2022-12-11T07:47:36.777Z,99.8
2022-12-11T08:07:36.763Z,99.6
2022-12-11T08:27:36.839Z,99.2
2022-12-11T08:47:36.753Z,99.6
2022-12-11T09:07:36.771Z,99.5
2022-12-11T09:27:36.763Z,99.5
2022-12-11T09:47:36.812Z,99.2
2022-12-11T10:07:36.727Z,98.8
2022-12-11T10:27:36.730Z,98.8
2022-12-11T10:47:36.827Z,98.5
2022-12-11T11:07:36.713Z,98.2
2022-12-11T11:27:36.717Z,97.4
2022-12-11T11:47:36.722Z,97.9
2022-12-11T12:07:36.689Z,98.5
2022-12-11T12:27:36.695Z,98.6
2022-12-11T12:47:36.687Z,98.7
2022-12-11T13:07:36.676Z,98.8
2022-12-11T13:27:36.868Z,99.1
2022-12-11T13:47:36.674Z,100.0
2022-12-11T14:07:36.757Z,100.0
2022-12-11T14:27:36.665Z,100.0
2022-12-11T14:47:36.655Z,100.0
2022-12-11T15:07:36.650Z,100.0
2022-12-11T15:27:36.653Z,100.0
2022-12-11T15:47:36.635Z,100.0
2022-12-11T16:07:36.621Z,100.0
2022-12-11T16:27:36.735Z,100.0
2022-12-11T16:47:36.618Z,100.0
2022-12-11T17:07:36.610Z,100.0
2022-12-11T17:27:36.622Z,100.0
2022-12-11T17:47:36.590Z,100.0
2022-12-11T18:07:36.593Z,100.0
2022-12-11T18:27:36.664Z,100.0
2022-12-11T18:47:36.573Z,100.0
2022-12-11T19:07:36.584Z,100.0
2022-12-11T19:27:36.564Z,100.0
2022-12-11T19:47:36.550Z,100.0
2022-12-11T20:07:36.525Z,100.0
2022-12-11T20:27:36.539Z,100.0
2022-12-11T20:47:36.578Z,98.5
2022-12-11T21:07:36.583Z,98.3
2022-12-11T21:27:36.503Z,99.1
2022-12-11T21:47:36.502Z,99.5
2022-12-11T22:07:36.556Z,99.4
2022-12-11T22:27:36.482Z,99.6
2022-12-11T22:47:36.467Z,99.3
2022-12-11T23:07:36.526Z,99.7
2022-12-11T23:27:36.456Z,99.7
2022-12-11T23:47:36.461Z,99.7
